MSC Mara — V7NF9 — position and weather

sailwx.info

Track history (hours):
 
Tides and Currents Weather Stations Pressure Air Temp Water Temp Dewpoint Dewpoint Depression Visibility Wind Speed Wind Dir Waves Ship Positions

MSC Mara

Last reported at 2014-Jul-24 19:32 UTC. Time now 2014-Aug-01 13:57 UTC.
Position S 38°14' E 140°33'.

Length 294 m; draft 9.3 m.

Type: Ship (hazmat cat C). MMSI: 538002955.

Date/timePositionNaut miles runAvg speedWind from/ knotsBaromVisibWave heightAir tempDewpointWater temp
2014-Jul-24 19:32S 38°14' E 140°33'1818.0
2014-Jul-24 18:32S 38°24' E 140°52'1817.7
2014-Jul-24 17:32S 38°34' E 141°11'1817.8
2014-Jul-24 16:32S 38°41' E 141°32'1818.9
2014-Jul-24 15:33S 38°44' E 141°55'1918.6
2014-Jul-24 14:33S 38°47' E 142°19'114 2.5
2014-Jul-22 17:26S 38°17' E 144°39'19 9.8
2014-Jul-22 15:28S 38°36' E 144°43'5213.2
2014-Jul-22 11:33S 39°00' E 145°42'1313.0
2014-Jul-22 10:34S 39°06' E 145°57'1312.8
2014-Jul-22 09:33S 39°11' E 146°12'1312.9
2014-Jul-22 08:33S 39°09' E 146°28'1313.2
2014-Jul-22 07:33S 39°05' E 146°44'1313.4
2014-Jul-22 06:33S 39°01' E 147°01'1513.6
2014-Jul-22 05:27S 38°56' E 147°19'12916.3
2014-Jul-21 21:32S 37°52' E 149°42'1817.8
2014-Jul-21 20:33S 37°42' E 149°60'1118.2
2014-Jul-21 19:55S 37°35' E 150°11'817.7
2014-Jul-21 19:28S 37°27' E 150°13'  
2014-Jul-19 00:10S 33°18' E 152°20'5 8.4
2014-Jul-18 23:33S 33°14' E 152°24'12 8.5
2014-Jul-18 22:08S 33°06' E 152°34'7 9.6
2014-Jul-18 21:27S 33°02' E 152°40'9 9.8
2014-Jul-18 20:33S 32°57' E 152°49'31411.1
2014-Jul-17 16:17S 37°42' E 150°06'1012.9
2014-Jul-17 15:30S 37°48' E 149°56'1213.1
2014-Jul-17 14:33S 37°55' E 149°43'12913.8
2014-Jul-17 05:12S 39°02' E 147°23'812.5
2014-Jul-17 04:33S 39°05' E 147°13'1311.9
2014-Jul-17 03:28S 39°10' E 146°58'1111.7
2014-Jul-17 02:33S 39°14' E 146°45'1211.4
2014-Jul-17 01:33S 39°17' E 146°31'1212.3
2014-Jul-17 00:33S 39°17' E 146°15'1212.3
2014-Jul-16 23:34S 39°17' E 145°59'1212.1
2014-Jul-16 22:33S 39°17' E 145°43'  
Track history (hours):
 
Tides and Currents Weather Stations Pressure Air Temp Water Temp Dewpoint Dewpoint Depression Visibility Wind Speed Wind Dir Waves Ship Positions

MSC Mara

Last reported at 2014-Jul-24 19:32 UTC. Time now 2014-Aug-01 13:57 UTC.
Position S 38°14' E 140°33'.

Length 294 m; draft 9.3 m.

Type: Ship (hazmat cat C). MMSI: 538002955.

Date/timePositionNaut miles runAvg speedWind from/ knotsBaromVisibWave heightAir tempDewpointWater temp
2014-Jul-24 19:32S 38°14' E 140°33'1818.0
2014-Jul-24 18:32S 38°24' E 140°52'1817.7
2014-Jul-24 17:32S 38°34' E 141°11'1817.8
2014-Jul-24 16:32S 38°41' E 141°32'1818.9
2014-Jul-24 15:33S 38°44' E 141°55'1918.6
2014-Jul-24 14:33S 38°47' E 142°19'114 2.5
2014-Jul-22 17:26S 38°17' E 144°39'19 9.8
2014-Jul-22 15:28S 38°36' E 144°43'5213.2
2014-Jul-22 11:33S 39°00' E 145°42'1313.0
2014-Jul-22 10:34S 39°06' E 145°57'1312.8
2014-Jul-22 09:33S 39°11' E 146°12'1312.9
2014-Jul-22 08:33S 39°09' E 146°28'1313.2
2014-Jul-22 07:33S 39°05' E 146°44'1313.4
2014-Jul-22 06:33S 39°01' E 147°01'1513.6
2014-Jul-22 05:27S 38°56' E 147°19'12916.3
2014-Jul-21 21:32S 37°52' E 149°42'1817.8
2014-Jul-21 20:33S 37°42' E 149°60'1118.2
2014-Jul-21 19:55S 37°35' E 150°11'817.7
2014-Jul-21 19:28S 37°27' E 150°13'  
2014-Jul-19 00:10S 33°18' E 152°20'5 8.4
2014-Jul-18 23:33S 33°14' E 152°24'12 8.5
2014-Jul-18 22:08S 33°06' E 152°34'7 9.6
2014-Jul-18 21:27S 33°02' E 152°40'9 9.8
2014-Jul-18 20:33S 32°57' E 152°49'31411.1
2014-Jul-17 16:17S 37°42' E 150°06'1012.9
2014-Jul-17 15:30S 37°48' E 149°56'1213.1
2014-Jul-17 14:33S 37°55' E 149°43'12913.8
2014-Jul-17 05:12S 39°02' E 147°23'812.5
2014-Jul-17 04:33S 39°05' E 147°13'1311.9
2014-Jul-17 03:28S 39°10' E 146°58'1111.7
2014-Jul-17 02:33S 39°14' E 146°45'1211.4
2014-Jul-17 01:33S 39°17' E 146°31'1212.3
2014-Jul-17 00:33S 39°17' E 146°15'1212.3
2014-Jul-16 23:34S 39°17' E 145°59'1212.1
2014-Jul-16 22:33S 39°17' E 145°43'  

Dump ship's entire track history